Terminal Aerodrome Forecast
Issued by NWS Brownsville, TX

Home | Current Version | Previous Version | Text Only | Print | Product List | Glossary On
Versions: 1 2 3 4 5 6 7 8 9 10 11 12 13 14 15 16 17 18
760
FTUS44 KBRO 241927 AAB
TAFHRL
TAF AMD
KHRL 241927Z 2419/2518 10011KT P6SM -RA SCT040 SCT060
     FM250200 07005KT P6SM SCT025
     FM251400 10008KT P6SM VCSH SCT040=

USA.gov is the U.S. government's official web portal to all federal, state and local government web resources and services.